createdAt,value
2023-04-08T00:00:53.807Z,19.08
2023-04-08T00:03:55.080Z,18.85
2023-04-08T00:06:55.810Z,18.94
2023-04-08T00:09:56.869Z,19.18
2023-04-08T00:12:57.833Z,19.25
2023-04-08T00:15:58.864Z,18.90
2023-04-08T00:18:59.812Z,19.09
2023-04-08T00:22:00.878Z,19.24
2023-04-08T00:25:01.828Z,19.16
2023-04-08T00:28:02.882Z,19.12
2023-04-08T00:31:03.865Z,18.86
2023-04-08T00:34:04.855Z,19.34
2023-04-08T00:37:05.810Z,18.92
2023-04-08T00:40:06.841Z,18.88
2023-04-08T00:43:07.816Z,19.05
2023-04-08T00:46:08.893Z,19.08
2023-04-08T00:49:09.817Z,19.08
2023-04-08T00:52:11.025Z,19.12
2023-04-08T00:55:11.826Z,19.32
2023-04-08T00:58:12.846Z,19.09
2023-04-08T01:01:23.871Z,19.42
2023-04-08T01:04:34.855Z,19.28
2023-04-08T01:07:45.835Z,18.95
2023-04-08T01:10:49.861Z,19.03
2023-04-08T01:13:59.820Z,19.02
2023-04-08T01:17:00.859Z,18.95
2023-04-08T01:20:01.818Z,19.15
2023-04-08T01:23:14.862Z,18.89
2023-04-08T01:26:15.787Z,19.03
2023-04-08T01:29:18.853Z,18.72
2023-04-08T01:32:20.876Z,19.00
2023-04-08T01:35:21.857Z,19.04
2023-04-08T01:38:27.792Z,19.15
2023-04-08T01:41:30.868Z,18.96
2023-04-08T01:44:31.785Z,18.71
2023-04-08T01:47:32.922Z,19.31
2023-04-08T01:50:33.781Z,18.92
2023-04-08T01:53:35.066Z,19.00
2023-04-08T01:56:35.789Z,19.43
2023-04-08T01:59:37.848Z,19.13
2023-04-08T02:02:33.109Z,18.87
2023-04-08T02:05:33.909Z,19.18
2023-04-08T02:08:34.804Z,19.00
2023-04-08T02:11:35.811Z,18.97
2023-04-08T02:14:36.817Z,18.98
2023-04-08T02:17:49.953Z,19.27
2023-04-08T02:21:01.816Z,19.25
2023-04-08T02:24:03.991Z,19.03
2023-04-08T02:27:05.814Z,19.26
2023-04-08T02:30:07.858Z,19.04
2023-04-08T02:33:10.808Z,19.03
2023-04-08T02:36:11.839Z,18.96
2023-04-08T02:39:12.788Z,19.02
2023-04-08T02:42:15.860Z,19.23
2023-04-08T02:45:16.828Z,18.97
2023-04-08T02:48:17.856Z,18.91
2023-04-08T02:51:18.806Z,19.01
2023-04-08T02:54:19.902Z,18.88
2023-04-08T02:57:20.794Z,18.91
2023-04-08T03:00:21.848Z,19.13
2023-04-08T03:03:16.094Z,19.07
2023-04-08T03:06:16.820Z,19.00
2023-04-08T03:09:17.768Z,19.04
2023-04-08T03:12:18.848Z,19.01
2023-04-08T03:15:19.785Z,19.13
2023-04-08T03:18:20.833Z,19.10
2023-04-08T03:21:21.846Z,19.19
2023-04-08T03:24:22.835Z,19.24
2023-04-08T03:27:23.800Z,19.19
2023-04-08T03:30:24.841Z,19.08
2023-04-08T03:33:25.798Z,19.02
2023-04-08T03:36:26.829Z,19.33
2023-04-08T03:39:27.800Z,19.20
2023-04-08T03:42:28.836Z,19.23
2023-04-08T03:45:29.810Z,19.00
2023-04-08T03:48:30.801Z,19.27
2023-04-08T03:51:31.811Z,19.07
2023-04-08T03:54:33.111Z,19.21
2023-04-08T03:57:33.784Z,19.33
2023-04-08T04:00:34.832Z,19.13
2023-04-08T04:03:35.850Z,19.47
2023-04-08T04:06:36.801Z,19.45
2023-04-08T04:09:37.785Z,19.32
2023-04-08T04:12:38.819Z,19.09
2023-04-08T04:15:39.917Z,18.97
2023-04-08T04:18:40.833Z,19.10
2023-04-08T04:21:41.784Z,19.18
2023-04-08T04:24:42.823Z,19.25
2023-04-08T04:27:43.784Z,19.22
2023-04-08T04:30:44.875Z,19.35
2023-04-08T04:33:45.811Z,19.26
2023-04-08T04:36:46.825Z,19.36
2023-04-08T04:39:47.776Z,19.33
2023-04-08T04:42:48.913Z,19.25
2023-04-08T04:45:49.795Z,19.40
2023-04-08T04:48:50.993Z,19.14
2023-04-08T04:51:51.775Z,19.21
2023-04-08T04:54:52.996Z,19.33
2023-04-08T04:57:53.772Z,19.36
2023-04-08T05:00:54.815Z,19.51
2023-04-08T05:03:55.791Z,19.08
2023-04-08T05:06:56.850Z,19.06
2023-04-08T05:09:57.783Z,19.29
2023-04-08T05:12:58.833Z,19.36
2023-04-08T05:15:59.832Z,19.35
2023-04-08T05:19:00.830Z,19.26
2023-04-08T05:22:01.838Z,19.31
2023-04-08T05:25:02.807Z,19.15
2023-04-08T05:28:03.782Z,19.11
2023-04-08T05:31:04.835Z,19.38
2023-04-08T05:34:05.791Z,19.08
2023-04-08T05:37:06.807Z,19.44
2023-04-08T05:40:07.764Z,19.27
2023-04-08T05:43:08.832Z,19.28
2023-04-08T05:46:09.792Z,19.51
2023-04-08T05:49:10.835Z,19.25
2023-04-08T05:52:11.779Z,19.33
2023-04-08T05:55:13.009Z,19.57
2023-04-08T05:58:13.787Z,19.22
2023-04-08T06:01:14.819Z,19.09
2023-04-08T06:04:15.839Z,18.98
2023-04-08T06:07:16.851Z,19.43
2023-04-08T06:10:17.776Z,19.23
2023-04-08T06:13:18.822Z,19.13
2023-04-08T06:16:25.835Z,19.43
2023-04-08T06:19:26.832Z,19.35
2023-04-08T06:22:27.766Z,19.61
2023-04-08T06:25:28.810Z,19.73
2023-04-08T06:28:29.757Z,19.63
2023-04-08T06:31:31.838Z,19.94
2023-04-08T06:34:32.776Z,19.61
2023-04-08T06:37:33.787Z,19.75
2023-04-08T06:40:34.763Z,19.95
2023-04-08T06:43:35.817Z,19.92
2023-04-08T06:46:36.754Z,19.87
2023-04-08T06:49:37.792Z,19.91
2023-04-08T06:52:38.758Z,19.73
2023-04-08T06:55:39.926Z,19.83
2023-04-08T06:58:40.762Z,19.66
2023-04-08T07:01:41.913Z,19.61
2023-04-08T07:04:43.894Z,20.16
2023-04-08T07:07:45.790Z,20.30
2023-04-08T07:10:46.767Z,19.95
2023-04-08T07:13:47.797Z,19.86
2023-04-08T07:16:48.820Z,19.85
2023-04-08T07:19:50.796Z,20.02
2023-04-08T07:22:51.781Z,19.90
2023-04-08T07:25:52.817Z,19.97
2023-04-08T07:28:53.761Z,19.98
2023-04-08T07:31:54.797Z,19.98
2023-04-08T07:34:55.751Z,19.87
2023-04-08T07:37:56.811Z,20.12
2023-04-08T07:40:57.804Z,20.07
2023-04-08T07:43:58.822Z,20.04
2023-04-08T07:46:59.761Z,19.89
2023-04-08T07:50:00.779Z,20.12
2023-04-08T07:53:01.747Z,19.93
2023-04-08T07:56:02.845Z,20.23
2023-04-08T07:59:03.767Z,19.72
2023-04-08T08:02:04.812Z,19.75
2023-04-08T08:05:05.837Z,19.73
2023-04-08T08:08:06.774Z,19.83
2023-04-08T08:11:07.763Z,19.40
2023-04-08T08:14:08.792Z,19.57
2023-04-08T08:17:09.809Z,19.56
2023-04-08T08:20:11.792Z,19.37
2023-04-08T08:23:12.822Z,19.55
2023-04-08T08:26:17.852Z,19.25
2023-04-08T08:29:18.740Z,19.36
2023-04-08T08:32:20.787Z,19.29
2023-04-08T08:35:21.728Z,19.49
2023-04-08T08:38:23.803Z,19.25
2023-04-08T08:41:24.734Z,19.49
2023-04-08T08:44:25.789Z,19.39
2023-04-08T08:47:26.768Z,19.50
2023-04-08T08:50:27.802Z,19.34
2023-04-08T08:53:29.740Z,19.52
2023-04-08T08:56:30.971Z,19.40
2023-04-08T08:59:31.734Z,19.51
2023-04-08T09:02:42.899Z,19.64
2023-04-08T09:05:43.909Z,19.69
2023-04-08T09:08:44.800Z,19.50
2023-04-08T09:11:46.769Z,19.26
2023-04-08T09:14:47.780Z,19.70
2023-04-08T09:17:48.764Z,19.37
2023-04-08T09:20:49.765Z,19.70
2023-04-08T09:23:54.922Z,19.32
2023-04-08T09:26:59.829Z,19.41
2023-04-08T09:30:00.739Z,19.29
2023-04-08T09:33:04.833Z,19.37
2023-04-08T09:36:05.745Z,19.27
2023-04-08T09:39:06.766Z,19.50
2023-04-08T09:42:08.795Z,19.41
2023-04-08T09:45:09.794Z,19.56
2023-04-08T09:48:14.451Z,19.30
2023-04-08T09:51:16.769Z,19.58
2023-04-08T09:54:20.738Z,19.47
2023-04-08T09:57:26.846Z,19.32
2023-04-08T10:00:28.714Z,19.63
2023-04-08T10:03:39.853Z,19.79
2023-04-08T10:06:41.718Z,19.37
2023-04-08T10:09:42.772Z,19.75
2023-04-08T10:12:43.763Z,19.75
2023-04-08T10:15:47.782Z,19.96
2023-04-08T10:18:49.728Z,20.04
2023-04-08T10:21:54.777Z,19.71
2023-04-08T10:25:15.754Z,19.98
2023-04-08T10:28:36.768Z,19.78
2023-04-08T10:31:37.771Z,19.93
2023-04-08T10:34:38.764Z,20.07
2023-04-08T10:37:39.721Z,19.88
2023-04-08T10:40:40.781Z,19.98
2023-04-08T10:43:45.718Z,20.06
2023-04-08T10:46:51.786Z,19.57
2023-04-08T10:49:52.698Z,20.00
2023-04-08T10:53:03.768Z,20.02
2023-04-08T10:56:05.765Z,19.77
2023-04-08T10:59:09.813Z,19.87
2023-04-08T11:02:10.830Z,20.02
2023-04-08T11:05:11.766Z,19.98
2023-04-08T11:08:08.386Z,19.94
2023-04-08T11:11:01.763Z,20.02
2023-04-08T11:14:02.731Z,19.92
2023-04-08T11:17:03.759Z,19.65
2023-04-08T11:20:08.722Z,19.79
2023-04-08T11:23:09.747Z,19.71
2023-04-08T11:26:10.727Z,19.67
2023-04-08T11:29:11.748Z,19.99
2023-04-08T11:32:12.735Z,20.01
2023-04-08T11:35:13.760Z,19.53
2023-04-08T11:38:17.741Z,19.62
2023-04-08T11:41:18.769Z,19.43
2023-04-08T11:44:19.707Z,19.69
2023-04-08T11:47:20.772Z,19.63
2023-04-08T11:50:21.721Z,19.70
2023-04-08T11:53:31.780Z,19.78
2023-04-08T11:56:32.703Z,19.68
2023-04-08T11:59:33.815Z,19.75
2023-04-08T12:02:34.797Z,19.66
2023-04-08T12:05:35.771Z,19.99
2023-04-08T12:08:36.736Z,19.85
2023-04-08T12:11:37.781Z,19.62
2023-04-08T12:14:38.738Z,19.81
2023-04-08T12:17:39.801Z,19.62
2023-04-08T12:20:40.714Z,19.53
2023-04-08T12:23:41.757Z,19.85
2023-04-08T12:26:42.712Z,19.66
2023-04-08T12:29:43.742Z,19.71
2023-04-08T12:32:44.765Z,19.95
2023-04-08T12:35:45.767Z,19.86
2023-04-08T12:38:46.738Z,19.68
2023-04-08T12:41:47.767Z,19.70
2023-04-08T12:44:48.701Z,19.56
2023-04-08T12:47:49.774Z,19.58
2023-04-08T12:50:50.724Z,19.74
2023-04-08T12:53:51.753Z,19.60
2023-04-08T12:56:52.728Z,19.61
2023-04-08T12:59:53.848Z,19.79
2023-04-08T13:02:54.846Z,19.57
2023-04-08T13:05:55.756Z,19.72
2023-04-08T13:08:56.716Z,19.54
2023-04-08T13:11:57.768Z,19.13
2023-04-08T13:14:58.698Z,19.30
2023-04-08T13:17:59.888Z,19.38
2023-04-08T13:21:01.704Z,19.23
2023-04-08T13:24:02.770Z,19.18
2023-04-08T13:27:03.736Z,19.25
2023-04-08T13:30:04.766Z,19.24
2023-04-08T13:33:05.817Z,19.13
2023-04-08T13:36:06.797Z,18.97
2023-04-08T13:39:07.721Z,19.07
2023-04-08T13:42:09.777Z,18.90
2023-04-08T13:45:10.716Z,19.03
2023-04-08T13:48:11.768Z,18.94
2023-04-08T13:51:12.689Z,18.72
2023-04-08T13:54:13.740Z,18.99
2023-04-08T13:57:14.687Z,19.06
2023-04-08T14:00:15.823Z,19.06
2023-04-08T14:03:16.733Z,19.13
2023-04-08T14:06:17.731Z,19.19
2023-04-08T14:09:18.705Z,19.12
2023-04-08T14:12:19.734Z,19.10
2023-04-08T14:15:20.708Z,19.17
2023-04-08T14:18:23.733Z,19.29
2023-04-08T14:21:25.730Z,19.28
2023-04-08T14:24:26.748Z,19.10
2023-04-08T14:27:27.687Z,19.12
2023-04-08T14:30:28.897Z,19.13
2023-04-08T14:33:29.687Z,19.37
2023-04-08T14:36:30.740Z,19.01
2023-04-08T14:39:31.686Z,19.11
2023-04-08T14:42:32.737Z,19.00
2023-04-08T14:45:33.692Z,19.09
2023-04-08T14:48:36.739Z,18.77
2023-04-08T14:51:37.687Z,18.77
2023-04-08T14:54:38.748Z,18.78
2023-04-08T14:57:39.709Z,18.91
2023-04-08T15:00:40.962Z,18.66
2023-04-08T15:03:41.768Z,19.01
2023-04-08T15:06:42.741Z,18.70
2023-04-08T15:09:43.677Z,18.85
2023-04-08T15:12:44.740Z,18.82
2023-04-08T15:15:45.727Z,19.31
2023-04-08T15:18:46.720Z,19.47
2023-04-08T15:21:47.738Z,19.53
2023-04-08T15:24:48.843Z,19.54
2023-04-08T15:27:49.728Z,19.32
2023-04-08T15:30:50.757Z,19.27
2023-04-08T15:33:51.816Z,19.40
2023-04-08T15:36:53.742Z,19.45
2023-04-08T15:39:54.695Z,19.23
2023-04-08T15:42:55.714Z,19.20
2023-04-08T15:45:56.725Z,19.04
2023-04-08T15:48:59.103Z,19.21
2023-04-08T15:52:00.666Z,19.30
2023-04-08T15:55:01.720Z,19.19
2023-04-08T15:58:03.672Z,19.23
2023-04-08T16:01:04.886Z,19.42
2023-04-08T16:04:05.703Z,19.60
2023-04-08T16:07:06.705Z,19.47
2023-04-08T16:10:07.670Z,19.64
2023-04-08T16:13:08.749Z,19.81
2023-04-08T16:16:09.722Z,20.00
2023-04-08T16:19:10.749Z,20.01
2023-04-08T16:22:11.685Z,19.43
2023-04-08T16:25:12.727Z,19.54
2023-04-08T16:28:13.692Z,19.73
2023-04-08T16:31:14.749Z,19.66
2023-04-08T16:34:15.659Z,19.75
2023-04-08T16:37:16.791Z,19.60
2023-04-08T16:40:17.719Z,19.60
2023-04-08T16:43:18.745Z,19.27
2023-04-08T16:46:22.695Z,19.24
2023-04-08T16:49:23.716Z,19.49
2023-04-08T16:52:24.663Z,19.57
2023-04-08T16:55:25.716Z,19.35
2023-04-08T16:58:26.679Z,19.49
2023-04-08T17:01:27.946Z,19.51
2023-04-08T17:04:28.652Z,19.95
2023-04-08T17:07:29.709Z,19.82
2023-04-08T17:10:30.694Z,19.98
2023-04-08T17:13:31.702Z,19.84
2023-04-08T17:16:32.736Z,19.74
2023-04-08T17:19:33.714Z,19.74
2023-04-08T17:22:34.663Z,19.86
2023-04-08T17:25:35.750Z,19.97
2023-04-08T17:28:36.662Z,19.68
2023-04-08T17:31:37.779Z,19.90
2023-04-08T17:34:39.644Z,19.98
2023-04-08T17:37:40.729Z,19.94
2023-04-08T17:40:41.690Z,19.97
2023-04-08T17:43:42.708Z,19.76
2023-04-08T17:46:44.666Z,19.84
2023-04-08T17:49:45.719Z,19.23
2023-04-08T17:52:46.654Z,19.65
2023-04-08T17:55:47.686Z,19.64
2023-04-08T17:58:48.687Z,19.95
2023-04-08T18:01:50.017Z,19.82
2023-04-08T18:04:50.667Z,19.93
2023-04-08T18:07:51.699Z,19.75
2023-04-08T18:10:52.682Z,19.97
2023-04-08T18:13:54.732Z,19.87
2023-04-08T18:16:55.680Z,19.96
2023-04-08T18:19:56.778Z,19.92
2023-04-08T18:22:57.721Z,19.80
2023-04-08T18:26:01.725Z,19.85
2023-04-08T18:29:02.669Z,20.08
2023-04-08T18:32:03.690Z,19.79
2023-04-08T18:35:04.681Z,20.10
2023-04-08T18:38:05.705Z,19.89
2023-04-08T18:41:06.647Z,19.99
2023-04-08T18:44:09.707Z,19.88
2023-04-08T18:47:10.638Z,19.91
2023-04-08T18:50:11.688Z,19.55
2023-04-08T18:53:12.654Z,19.59
2023-04-08T18:56:13.716Z,19.90
2023-04-08T18:59:14.686Z,19.73
2023-04-08T19:02:15.933Z,19.70
2023-04-08T19:05:16.634Z,19.92
2023-04-08T19:08:17.730Z,20.00
2023-04-08T19:11:18.655Z,19.92
2023-04-08T19:14:19.695Z,20.15
2023-04-08T19:17:20.625Z,19.90
2023-04-08T19:20:21.653Z,19.89
2023-04-08T19:23:25.655Z,20.14
2023-04-08T19:26:26.677Z,19.94
2023-04-08T19:29:29.653Z,19.71
2023-04-08T19:32:30.688Z,20.04
2023-04-08T19:35:31.673Z,20.07
2023-04-08T19:38:32.683Z,19.90
2023-04-08T19:41:33.664Z,19.93
2023-04-08T19:44:34.685Z,19.95
2023-04-08T19:47:35.671Z,20.05
2023-04-08T19:50:36.726Z,20.14
2023-04-08T19:53:37.801Z,19.96
2023-04-08T19:56:40.726Z,19.93
2023-04-08T19:59:41.656Z,20.13
2023-04-08T20:02:42.947Z,20.00
2023-04-08T20:05:43.629Z,20.04
2023-04-08T20:08:44.743Z,20.15
2023-04-08T20:11:45.647Z,19.93
2023-04-08T20:14:49.006Z,20.10
2023-04-08T20:18:52.577Z,20.12
2023-04-08T20:26:32.664Z,19.59
2023-04-08T20:29:33.740Z,19.92
2023-04-08T20:32:34.744Z,20.04
2023-04-08T20:35:35.734Z,20.12
2023-04-08T20:38:36.655Z,20.18
2023-04-08T20:41:40.773Z,20.24
2023-04-08T20:44:41.636Z,20.10
2023-04-08T20:47:42.746Z,20.04
2023-04-08T20:50:43.645Z,20.31
2023-04-08T20:53:44.794Z,20.18
2023-04-08T20:56:47.226Z,20.27
2023-04-08T20:59:47.863Z,19.88
2023-04-08T21:02:50.184Z,19.81
2023-04-08T21:05:51.443Z,19.95
2023-04-08T21:08:54.132Z,19.80
2023-04-08T21:11:54.883Z,20.03
2023-04-08T21:14:58.731Z,19.87
2023-04-08T21:18:00.339Z,20.30
2023-04-08T21:21:01.790Z,19.89
2023-04-08T21:24:27.937Z,19.74
2023-04-08T21:27:28.660Z,20.11
2023-04-08T21:30:29.646Z,19.87
2023-04-08T21:33:30.621Z,20.27
2023-04-08T21:36:31.653Z,20.19
2023-04-08T21:39:32.628Z,20.30
2023-04-08T21:42:35.698Z,20.07
2023-04-08T21:45:36.671Z,20.13
2023-04-08T21:48:37.670Z,20.29
2023-04-08T21:51:39.635Z,20.42
2023-04-08T21:54:40.657Z,20.07
2023-04-08T21:57:41.684Z,20.15
2023-04-08T22:00:42.649Z,20.41
2023-04-08T22:03:43.723Z,20.48
2023-04-08T22:06:44.745Z,20.45
2023-04-08T22:09:45.669Z,20.44
2023-04-08T22:13:11.682Z,20.59
2023-04-08T22:16:12.619Z,20.25
2023-04-08T22:19:13.685Z,19.90
2023-04-08T22:22:14.645Z,20.28
2023-04-08T22:25:15.670Z,20.45
2023-04-08T22:28:16.606Z,20.41
2023-04-08T22:31:21.728Z,20.13
2023-04-08T22:34:22.618Z,20.11
2023-04-08T22:37:23.671Z,20.04
2023-04-08T22:40:24.932Z,20.06
2023-04-08T22:43:26.715Z,20.38
2023-04-08T22:46:27.643Z,20.25
2023-04-08T22:49:28.668Z,19.26
2023-04-08T22:52:29.613Z,20.14
2023-04-08T22:55:30.677Z,20.11
2023-04-08T22:58:31.619Z,20.24
2023-04-08T23:01:32.704Z,20.45
2023-04-08T23:04:33.646Z,19.77
2023-04-08T23:07:34.854Z,19.92
2023-04-08T23:10:54.907Z,19.87
2023-04-08T23:13:41.765Z,20.00
2023-04-08T23:16:42.643Z,19.87
2023-04-08T23:19:43.660Z,20.09
2023-04-08T23:22:44.653Z,20.03
2023-04-08T23:25:48.650Z,20.12
2023-04-08T23:28:50.990Z,20.20
2023-04-08T23:31:51.661Z,20.35
2023-04-08T23:34:52.598Z,20.33
2023-04-08T23:37:53.653Z,20.17
2023-04-08T23:40:54.629Z,20.27
2023-04-08T23:43:55.660Z,20.16
2023-04-08T23:46:56.695Z,20.20
2023-04-08T23:49:58.662Z,20.34
2023-04-08T23:53:00.636Z,20.41
2023-04-08T23:56:01.872Z,20.29
2023-04-08T23:59:02.613Z,20.12
